sensor_id;sensor_type;location;lat;lon;timestamp;P1;durP1;ratioP1;P2;durP2;ratioP2
49998;SDS011;68071;45.062;7.356;2023-08-24T00:00:20;11.23;;;6.50;;
49998;SDS011;68071;45.062;7.356;2023-08-24T00:03:24;8.75;;;5.72;;
49998;SDS011;68071;45.062;7.356;2023-08-24T00:06:29;8.20;;;5.78;;
49998;SDS011;68071;45.062;7.356;2023-08-24T00:09:32;7.80;;;5.85;;
49998;SDS011;68071;45.062;7.356;2023-08-24T00:12:36;7.18;;;5.93;;
49998;SDS011;68071;45.062;7.356;2023-08-24T00:15:40;9.00;;;5.90;;
49998;SDS011;68071;45.062;7.356;2023-08-24T00:18:44;9.07;;;5.40;;
49998;SDS011;68071;45.062;7.356;2023-08-24T00:21:49;6.68;;;5.50;;
49998;SDS011;68071;45.062;7.356;2023-08-24T00:24:53;6.70;;;6.00;;
49998;SDS011;68071;45.062;7.356;2023-08-24T00:27:57;6.75;;;6.00;;
49998;SDS011;68071;45.062;7.356;2023-08-24T00:31:01;6.93;;;5.53;;
49998;SDS011;68071;45.062;7.356;2023-08-24T00:34:05;7.88;;;5.80;;
49998;SDS011;68071;45.062;7.356;2023-08-24T00:37:10;6.75;;;6.05;;
49998;SDS011;68071;45.062;7.356;2023-08-24T00:40:13;8.02;;;5.90;;
49998;SDS011;68071;45.062;7.356;2023-08-24T00:43:17;7.07;;;5.90;;
49998;SDS011;68071;45.062;7.356;2023-08-24T00:46:21;7.32;;;6.38;;
49998;SDS011;68071;45.062;7.356;2023-08-24T00:49:26;7.90;;;6.70;;
49998;SDS011;68071;45.062;7.356;2023-08-24T00:52:31;7.38;;;6.32;;
49998;SDS011;68071;45.062;7.356;2023-08-24T00:55:36;7.97;;;6.25;;
49998;SDS011;68071;45.062;7.356;2023-08-24T00:58:40;7.90;;;6.55;;
49998;SDS011;68071;45.062;7.356;2023-08-24T01:01:44;8.60;;;6.78;;
49998;SDS011;68071;45.062;7.356;2023-08-24T01:04:50;7.22;;;6.50;;
49998;SDS011;68071;45.062;7.356;2023-08-24T01:07:56;7.57;;;6.20;;
49998;SDS011;68071;45.062;7.356;2023-08-24T01:14:41;7.18;;;6.40;;
49998;SDS011;68071;45.062;7.356;2023-08-24T01:17:52;7.30;;;6.60;;
49998;SDS011;68071;45.062;7.356;2023-08-24T01:21:00;8.80;;;7.00;;
49998;SDS011;68071;45.062;7.356;2023-08-24T01:24:10;8.07;;;7.28;;
49998;SDS011;68071;45.062;7.356;2023-08-24T01:27:20;7.93;;;7.13;;
49998;SDS011;68071;45.062;7.356;2023-08-24T01:30:25;10.40;;;7.73;;
49998;SDS011;68071;45.062;7.356;2023-08-24T01:33:29;7.70;;;6.90;;
49998;SDS011;68071;45.062;7.356;2023-08-24T01:36:33;9.13;;;7.30;;
49998;SDS011;68071;45.062;7.356;2023-08-24T01:39:41;9.13;;;7.20;;
49998;SDS011;68071;45.062;7.356;2023-08-24T01:45:57;7.72;;;6.95;;
49998;SDS011;68071;45.062;7.356;2023-08-24T01:49:02;7.80;;;7.00;;
49998;SDS011;68071;45.062;7.356;2023-08-24T01:52:09;10.60;;;7.78;;
49998;SDS011;68071;45.062;7.356;2023-08-24T01:55:15;8.15;;;7.22;;
49998;SDS011;68071;45.062;7.356;2023-08-24T01:58:21;7.78;;;6.97;;
49998;SDS011;68071;45.062;7.356;2023-08-24T02:01:26;7.60;;;6.90;;
49998;SDS011;68071;45.062;7.356;2023-08-24T02:04:29;8.70;;;7.38;;
49998;SDS011;68071;45.062;7.356;2023-08-24T02:07:33;10.15;;;7.90;;
49998;SDS011;68071;45.062;7.356;2023-08-24T02:10:37;8.30;;;7.43;;
49998;SDS011;68071;45.062;7.356;2023-08-24T02:13:41;9.45;;;7.70;;
49998;SDS011;68071;45.062;7.356;2023-08-24T02:16:45;11.15;;;6.93;;
49998;SDS011;68071;45.062;7.356;2023-08-24T02:19:49;9.80;;;7.28;;
49998;SDS011;68071;45.062;7.356;2023-08-24T02:22:53;9.47;;;6.77;;
49998;SDS011;68071;45.062;7.356;2023-08-24T02:25:57;9.05;;;7.30;;
49998;SDS011;68071;45.062;7.356;2023-08-24T02:29:01;7.95;;;7.07;;
49998;SDS011;68071;45.062;7.356;2023-08-24T02:32:07;9.52;;;7.35;;
49998;SDS011;68071;45.062;7.356;2023-08-24T02:35:11;8.95;;;6.97;;
49998;SDS011;68071;45.062;7.356;2023-08-24T02:38:14;10.82;;;6.65;;
49998;SDS011;68071;45.062;7.356;2023-08-24T02:41:18;8.85;;;6.53;;
49998;SDS011;68071;45.062;7.356;2023-08-24T02:44:22;8.68;;;6.75;;
49998;SDS011;68071;45.062;7.356;2023-08-24T02:47:26;9.32;;;6.13;;
49998;SDS011;68071;45.062;7.356;2023-08-24T02:50:30;8.20;;;6.75;;
49998;SDS011;68071;45.062;7.356;2023-08-24T02:53:34;7.72;;;5.55;;
49998;SDS011;68071;45.062;7.356;2023-08-24T02:56:38;7.95;;;6.32;;
49998;SDS011;68071;45.062;7.356;2023-08-24T02:59:43;9.30;;;6.43;;
49998;SDS011;68071;45.062;7.356;2023-08-24T03:05:55;7.13;;;6.35;;
49998;SDS011;68071;45.062;7.356;2023-08-24T03:09:00;10.57;;;6.88;;
49998;SDS011;68071;45.062;7.356;2023-08-24T03:12:09;7.57;;;6.35;;
49998;SDS011;68071;45.062;7.356;2023-08-24T03:15:13;7.45;;;6.20;;
49998;SDS011;68071;45.062;7.356;2023-08-24T03:18:16;8.15;;;6.13;;
49998;SDS011;68071;45.062;7.356;2023-08-24T03:21:21;10.30;;;7.03;;
49998;SDS011;68071;45.062;7.356;2023-08-24T03:24:25;8.95;;;6.93;;
49998;SDS011;68071;45.062;7.356;2023-08-24T03:27:30;10.02;;;6.65;;
49998;SDS011;68071;45.062;7.356;2023-08-24T03:30:36;7.78;;;6.05;;
49998;SDS011;68071;45.062;7.356;2023-08-24T03:33:41;9.02;;;7.25;;
49998;SDS011;68071;45.062;7.356;2023-08-24T03:36:46;8.63;;;6.90;;
49998;SDS011;68071;45.062;7.356;2023-08-24T03:39:51;8.77;;;7.15;;
49998;SDS011;68071;45.062;7.356;2023-08-24T03:42:56;8.68;;;6.88;;
49998;SDS011;68071;45.062;7.356;2023-08-24T03:46:00;7.50;;;6.63;;
49998;SDS011;68071;45.062;7.356;2023-08-24T03:49:04;8.33;;;6.37;;
49998;SDS011;68071;45.062;7.356;2023-08-24T03:52:08;7.32;;;5.95;;
49998;SDS011;68071;45.062;7.356;2023-08-24T03:55:12;8.65;;;6.50;;
49998;SDS011;68071;45.062;7.356;2023-08-24T03:58:16;8.88;;;6.63;;
49998;SDS011;68071;45.062;7.356;2023-08-24T04:01:21;7.25;;;6.55;;
49998;SDS011;68071;45.062;7.356;2023-08-24T04:04:27;7.53;;;6.60;;
49998;SDS011;68071;45.062;7.356;2023-08-24T04:07:31;7.82;;;7.03;;
49998;SDS011;68071;45.062;7.356;2023-08-24T04:10:35;7.68;;;6.45;;
49998;SDS011;68071;45.062;7.356;2023-08-24T04:13:39;9.85;;;6.70;;
49998;SDS011;68071;45.062;7.356;2023-08-24T04:16:43;9.27;;;6.80;;
49998;SDS011;68071;45.062;7.356;2023-08-24T04:19:47;8.98;;;6.93;;
49998;SDS011;68071;45.062;7.356;2023-08-24T04:22:50;6.93;;;6.25;;
49998;SDS011;68071;45.062;7.356;2023-08-24T04:25:54;9.95;;;6.22;;
49998;SDS011;68071;45.062;7.356;2023-08-24T04:28:59;9.30;;;7.55;;
49998;SDS011;68071;45.062;7.356;2023-08-24T04:32:03;10.25;;;6.93;;
49998;SDS011;68071;45.062;7.356;2023-08-24T04:35:07;9.63;;;7.45;;
49998;SDS011;68071;45.062;7.356;2023-08-24T04:38:11;8.23;;;7.22;;
49998;SDS011;68071;45.062;7.356;2023-08-24T04:41:16;8.55;;;7.13;;
49998;SDS011;68071;45.062;7.356;2023-08-24T04:44:20;8.93;;;7.30;;
49998;SDS011;68071;45.062;7.356;2023-08-24T04:47:24;8.48;;;7.68;;
49998;SDS011;68071;45.062;7.356;2023-08-24T04:50:28;11.05;;;8.90;;
49998;SDS011;68071;45.062;7.356;2023-08-24T04:53:32;7.80;;;7.10;;
49998;SDS011;68071;45.062;7.356;2023-08-24T04:56:36;9.63;;;7.18;;
49998;SDS011;68071;45.062;7.356;2023-08-24T04:59:40;9.50;;;7.55;;
49998;SDS011;68071;45.062;7.356;2023-08-24T05:02:44;9.43;;;7.35;;
49998;SDS011;68071;45.062;7.356;2023-08-24T05:05:47;9.30;;;7.68;;
49998;SDS011;68071;45.062;7.356;2023-08-24T05:08:51;8.05;;;6.90;;
49998;SDS011;68071;45.062;7.356;2023-08-24T05:11:56;7.78;;;6.75;;
49998;SDS011;68071;45.062;7.356;2023-08-24T05:15:00;9.30;;;7.72;;
49998;SDS011;68071;45.062;7.356;2023-08-24T05:22:44;11.63;;;7.35;;
49998;SDS011;68071;45.062;7.356;2023-08-24T05:25:48;11.70;;;7.45;;
49998;SDS011;68071;45.062;7.356;2023-08-24T05:28:52;9.73;;;7.90;;
49998;SDS011;68071;45.062;7.356;2023-08-24T05:31:56;8.93;;;7.20;;
49998;SDS011;68071;45.062;7.356;2023-08-24T05:35:00;10.10;;;7.22;;
49998;SDS011;68071;45.062;7.356;2023-08-24T05:38:04;7.75;;;6.93;;
49998;SDS011;68071;45.062;7.356;2023-08-24T05:41:08;8.48;;;6.78;;
49998;SDS011;68071;45.062;7.356;2023-08-24T05:44:12;7.57;;;6.87;;
49998;SDS011;68071;45.062;7.356;2023-08-24T05:47:16;8.50;;;7.25;;
49998;SDS011;68071;45.062;7.356;2023-08-24T05:50:20;7.85;;;7.13;;
49998;SDS011;68071;45.062;7.356;2023-08-24T05:53:24;8.48;;;7.65;;
49998;SDS011;68071;45.062;7.356;2023-08-24T05:56:28;7.75;;;6.95;;
49998;SDS011;68071;45.062;7.356;2023-08-24T05:59:32;8.98;;;7.18;;
49998;SDS011;68071;45.062;7.356;2023-08-24T06:02:37;8.68;;;7.60;;
49998;SDS011;68071;45.062;7.356;2023-08-24T06:05:41;14.27;;;10.60;;
49998;SDS011;68071;45.062;7.356;2023-08-24T06:08:45;14.45;;;12.70;;
49998;SDS011;68071;45.062;7.356;2023-08-24T06:11:49;13.07;;;11.48;;
49998;SDS011;68071;45.062;7.356;2023-08-24T06:14:53;13.90;;;11.57;;
49998;SDS011;68071;45.062;7.356;2023-08-24T06:17:57;10.90;;;9.77;;
49998;SDS011;68071;45.062;7.356;2023-08-24T06:21:02;9.40;;;8.35;;
49998;SDS011;68071;45.062;7.356;2023-08-24T06:27:11;10.38;;;8.07;;
49998;SDS011;68071;45.062;7.356;2023-08-24T06:30:15;8.40;;;7.53;;
49998;SDS011;68071;45.062;7.356;2023-08-24T06:33:19;8.88;;;7.97;;
49998;SDS011;68071;45.062;7.356;2023-08-24T06:36:23;11.57;;;7.57;;
49998;SDS011;68071;45.062;7.356;2023-08-24T06:39:27;9.63;;;7.53;;
49998;SDS011;68071;45.062;7.356;2023-08-24T06:42:31;9.80;;;7.95;;
49998;SDS011;68071;45.062;7.356;2023-08-24T06:45:34;11.02;;;7.78;;
49998;SDS011;68071;45.062;7.356;2023-08-24T06:48:38;8.90;;;6.78;;
49998;SDS011;68071;45.062;7.356;2023-08-24T06:51:42;9.77;;;8.10;;
49998;SDS011;68071;45.062;7.356;2023-08-24T06:54:46;9.73;;;7.68;;
49998;SDS011;68071;45.062;7.356;2023-08-24T06:57:52;8.60;;;7.75;;
49998;SDS011;68071;45.062;7.356;2023-08-24T07:00:56;11.30;;;7.68;;
49998;SDS011;68071;45.062;7.356;2023-08-24T07:04:00;12.27;;;8.65;;
49998;SDS011;68071;45.062;7.356;2023-08-24T07:07:04;8.03;;;7.23;;
49998;SDS011;68071;45.062;7.356;2023-08-24T07:10:08;8.07;;;7.28;;
49998;SDS011;68071;45.062;7.356;2023-08-24T07:13:12;9.70;;;7.30;;
49998;SDS011;68071;45.062;7.356;2023-08-24T07:16:16;7.65;;;6.65;;
49998;SDS011;68071;45.062;7.356;2023-08-24T07:19:20;9.18;;;7.95;;
49998;SDS011;68071;45.062;7.356;2023-08-24T07:22:24;8.90;;;6.90;;
49998;SDS011;68071;45.062;7.356;2023-08-24T07:25:31;7.07;;;6.32;;
49998;SDS011;68071;45.062;7.356;2023-08-24T07:28:36;7.47;;;6.28;;
49998;SDS011;68071;45.062;7.356;2023-08-24T07:31:40;7.97;;;6.40;;
49998;SDS011;68071;45.062;7.356;2023-08-24T07:34:44;12.90;;;7.13;;
49998;SDS011;68071;45.062;7.356;2023-08-24T07:37:48;9.73;;;7.53;;
49998;SDS011;68071;45.062;7.356;2023-08-24T07:40:52;9.55;;;7.55;;
49998;SDS011;68071;45.062;7.356;2023-08-24T07:43:56;8.57;;;7.03;;
49998;SDS011;68071;45.062;7.356;2023-08-24T07:47:00;8.18;;;6.75;;
49998;SDS011;68071;45.062;7.356;2023-08-24T07:50:04;10.05;;;7.40;;
49998;SDS011;68071;45.062;7.356;2023-08-24T07:53:11;8.02;;;6.82;;
49998;SDS011;68071;45.062;7.356;2023-08-24T07:56:14;8.02;;;6.53;;
49998;SDS011;68071;45.062;7.356;2023-08-24T07:59:18;10.20;;;6.70;;
49998;SDS011;68071;45.062;7.356;2023-08-24T08:02:22;10.73;;;6.80;;
49998;SDS011;68071;45.062;7.356;2023-08-24T08:05:26;8.70;;;7.20;;
49998;SDS011;68071;45.062;7.356;2023-08-24T08:08:30;7.90;;;7.10;;
49998;SDS011;68071;45.062;7.356;2023-08-24T08:11:35;9.68;;;7.20;;
49998;SDS011;68071;45.062;7.356;2023-08-24T08:14:39;11.48;;;6.53;;
49998;SDS011;68071;45.062;7.356;2023-08-24T08:17:43;7.65;;;6.63;;
49998;SDS011;68071;45.062;7.356;2023-08-24T08:20:50;9.02;;;6.15;;
49998;SDS011;68071;45.062;7.356;2023-08-24T08:23:55;8.32;;;5.57;;
49998;SDS011;68071;45.062;7.356;2023-08-24T08:26:58;7.87;;;6.53;;
49998;SDS011;68071;45.062;7.356;2023-08-24T08:30:03;8.55;;;6.40;;
49998;SDS011;68071;45.062;7.356;2023-08-24T08:33:10;7.80;;;7.00;;
49998;SDS011;68071;45.062;7.356;2023-08-24T08:39:19;9.25;;;6.32;;
49998;SDS011;68071;45.062;7.356;2023-08-24T08:42:23;10.80;;;6.22;;
49998;SDS011;68071;45.062;7.356;2023-08-24T08:45:27;9.73;;;6.55;;
49998;SDS011;68071;45.062;7.356;2023-08-24T08:48:32;6.97;;;6.28;;
49998;SDS011;68071;45.062;7.356;2023-08-24T08:51:37;10.32;;;6.35;;
49998;SDS011;68071;45.062;7.356;2023-08-24T08:54:42;9.50;;;6.72;;
49998;SDS011;68071;45.062;7.356;2023-08-24T08:57:47;8.93;;;6.18;;
49998;SDS011;68071;45.062;7.356;2023-08-24T09:00:51;10.00;;;6.70;;
49998;SDS011;68071;45.062;7.356;2023-08-24T09:03:56;7.18;;;6.00;;
49998;SDS011;68071;45.062;7.356;2023-08-24T09:07:00;9.50;;;5.85;;
49998;SDS011;68071;45.062;7.356;2023-08-24T09:10:08;8.70;;;6.80;;
49998;SDS011;68071;45.062;7.356;2023-08-24T09:13:12;9.23;;;6.22;;
49998;SDS011;68071;45.062;7.356;2023-08-24T09:16:16;7.68;;;6.40;;
49998;SDS011;68071;45.062;7.356;2023-08-24T09:19:23;9.60;;;6.07;;
49998;SDS011;68071;45.062;7.356;2023-08-24T09:22:36;10.02;;;6.93;;
49998;SDS011;68071;45.062;7.356;2023-08-24T09:25:44;10.95;;;6.65;;
49998;SDS011;68071;45.062;7.356;2023-08-24T09:28:49;8.93;;;6.80;;
49998;SDS011;68071;45.062;7.356;2023-08-24T09:31:53;8.63;;;7.10;;
49998;SDS011;68071;45.062;7.356;2023-08-24T09:38:23;10.32;;;7.00;;
49998;SDS011;68071;45.062;7.356;2023-08-24T09:41:40;9.85;;;7.50;;
49998;SDS011;68071;45.062;7.356;2023-08-24T09:44:47;12.25;;;7.28;;
49998;SDS011;68071;45.062;7.356;2023-08-24T09:47:51;10.70;;;7.53;;
49998;SDS011;68071;45.062;7.356;2023-08-24T09:50:55;11.57;;;7.57;;
49998;SDS011;68071;45.062;7.356;2023-08-24T09:54:08;9.38;;;7.72;;
49998;SDS011;68071;45.062;7.356;2023-08-24T09:57:13;11.40;;;7.63;;
49998;SDS011;68071;45.062;7.356;2023-08-24T10:00:18;10.15;;;7.82;;
49998;SDS011;68071;45.062;7.356;2023-08-24T10:03:26;9.43;;;7.53;;
49998;SDS011;68071;45.062;7.356;2023-08-24T10:06:31;8.85;;;7.93;;
49998;SDS011;68071;45.062;7.356;2023-08-24T10:09:42;12.35;;;7.78;;
49998;SDS011;68071;45.062;7.356;2023-08-24T10:12:51;9.23;;;7.90;;
49998;SDS011;68071;45.062;7.356;2023-08-24T10:16:00;8.38;;;7.18;;
49998;SDS011;68071;45.062;7.356;2023-08-24T10:19:04;9.90;;;8.27;;
49998;SDS011;68071;45.062;7.356;2023-08-24T10:22:09;10.77;;;8.65;;
49998;SDS011;68071;45.062;7.356;2023-08-24T10:25:14;9.65;;;8.02;;
49998;SDS011;68071;45.062;7.356;2023-08-24T10:28:20;9.10;;;8.20;;
49998;SDS011;68071;45.062;7.356;2023-08-24T10:31:28;11.77;;;8.75;;
49998;SDS011;68071;45.062;7.356;2023-08-24T10:34:34;12.13;;;8.77;;
49998;SDS011;68071;45.062;7.356;2023-08-24T10:37:37;11.27;;;8.73;;
49998;SDS011;68071;45.062;7.356;2023-08-24T10:40:41;12.25;;;9.20;;
49998;SDS011;68071;45.062;7.356;2023-08-24T10:43:48;11.38;;;8.85;;
49998;SDS011;68071;45.062;7.356;2023-08-24T10:47:06;12.90;;;9.23;;
49998;SDS011;68071;45.062;7.356;2023-08-24T10:50:10;13.80;;;9.63;;
49998;SDS011;68071;45.062;7.356;2023-08-24T10:56:39;11.10;;;9.13;;
49998;SDS011;68071;45.062;7.356;2023-08-24T10:59:43;14.35;;;10.40;;
49998;SDS011;68071;45.062;7.356;2023-08-24T11:02:48;12.95;;;10.38;;
49998;SDS011;68071;45.062;7.356;2023-08-24T11:05:56;14.30;;;10.00;;
49998;SDS011;68071;45.062;7.356;2023-08-24T11:09:06;11.20;;;10.18;;
49998;SDS011;68071;45.062;7.356;2023-08-24T11:12:18;11.23;;;10.00;;
49998;SDS011;68071;45.062;7.356;2023-08-24T11:15:29;12.57;;;9.93;;
49998;SDS011;68071;45.062;7.356;2023-08-24T11:18:38;12.60;;;9.65;;
49998;SDS011;68071;45.062;7.356;2023-08-24T11:21:43;11.98;;;10.73;;
49998;SDS011;68071;45.062;7.356;2023-08-24T11:24:49;13.00;;;10.98;;
49998;SDS011;68071;45.062;7.356;2023-08-24T11:27:53;12.40;;;11.10;;
49998;SDS011;68071;45.062;7.356;2023-08-24T11:30:58;12.38;;;10.65;;
49998;SDS011;68071;45.062;7.356;2023-08-24T11:34:03;12.63;;;10.45;;
49998;SDS011;68071;45.062;7.356;2023-08-24T11:37:07;11.20;;;10.02;;
49998;SDS011;68071;45.062;7.356;2023-08-24T11:40:22;13.60;;;11.05;;
49998;SDS011;68071;45.062;7.356;2023-08-24T11:43:29;13.60;;;10.30;;
49998;SDS011;68071;45.062;7.356;2023-08-24T11:46:33;12.43;;;10.77;;
49998;SDS011;68071;45.062;7.356;2023-08-24T11:52:42;13.50;;;10.48;;
49998;SDS011;68071;45.062;7.356;2023-08-24T11:55:47;13.30;;;10.23;;
49998;SDS011;68071;45.062;7.356;2023-08-24T11:58:50;11.38;;;10.18;;
49998;SDS011;68071;45.062;7.356;2023-08-24T12:01:54;11.13;;;10.02;;
49998;SDS011;68071;45.062;7.356;2023-08-24T12:04:58;13.15;;;10.50;;
49998;SDS011;68071;45.062;7.356;2023-08-24T12:08:03;15.55;;;10.13;;
49998;SDS011;68071;45.062;7.356;2023-08-24T12:11:14;11.82;;;10.10;;
49998;SDS011;68071;45.062;7.356;2023-08-24T12:14:19;11.43;;;10.23;;
49998;SDS011;68071;45.062;7.356;2023-08-24T12:17:23;11.88;;;10.23;;
49998;SDS011;68071;45.062;7.356;2023-08-24T12:20:27;12.87;;;10.23;;
49998;SDS011;68071;45.062;7.356;2023-08-24T12:23:33;11.25;;;10.15;;
49998;SDS011;68071;45.062;7.356;2023-08-24T12:26:37;11.40;;;10.18;;
49998;SDS011;68071;45.062;7.356;2023-08-24T12:29:45;10.65;;;9.48;;
49998;SDS011;68071;45.062;7.356;2023-08-24T12:32:50;11.13;;;10.02;;
49998;SDS011;68071;45.062;7.356;2023-08-24T12:38:58;11.43;;;9.88;;
49998;SDS011;68071;45.062;7.356;2023-08-24T12:42:03;13.32;;;10.20;;
49998;SDS011;68071;45.062;7.356;2023-08-24T12:45:07;10.32;;;9.32;;
49998;SDS011;68071;45.062;7.356;2023-08-24T12:51:16;12.38;;;9.52;;
49998;SDS011;68071;45.062;7.356;2023-08-24T12:54:20;14.02;;;10.30;;
49998;SDS011;68071;45.062;7.356;2023-08-24T12:57:24;11.40;;;9.85;;
49998;SDS011;68071;45.062;7.356;2023-08-24T13:00:28;13.52;;;10.00;;
49998;SDS011;68071;45.062;7.356;2023-08-24T13:03:32;10.88;;;9.77;;
49998;SDS011;68071;45.062;7.356;2023-08-24T13:06:36;12.15;;;10.13;;
49998;SDS011;68071;45.062;7.356;2023-08-24T13:09:40;11.80;;;10.65;;
49998;SDS011;68071;45.062;7.356;2023-08-24T13:12:44;11.98;;;10.70;;
49998;SDS011;68071;45.062;7.356;2023-08-24T13:15:51;12.07;;;10.60;;
49998;SDS011;68071;45.062;7.356;2023-08-24T13:18:55;11.48;;;10.30;;
49998;SDS011;68071;45.062;7.356;2023-08-24T13:25:04;15.43;;;10.27;;
49998;SDS011;68071;45.062;7.356;2023-08-24T13:28:08;11.02;;;9.93;;
49998;SDS011;68071;45.062;7.356;2023-08-24T13:31:12;12.32;;;10.90;;
49998;SDS011;68071;45.062;7.356;2023-08-24T13:34:16;12.18;;;10.85;;
49998;SDS011;68071;45.062;7.356;2023-08-24T13:37:20;12.45;;;11.15;;
49998;SDS011;68071;45.062;7.356;2023-08-24T13:40:24;9.70;;;8.32;;
49998;SDS011;68071;45.062;7.356;2023-08-24T13:43:27;10.57;;;9.18;;
49998;SDS011;68071;45.062;7.356;2023-08-24T13:46:31;11.90;;;10.70;;
49998;SDS011;68071;45.062;7.356;2023-08-24T13:49:35;11.52;;;10.43;;
49998;SDS011;68071;45.062;7.356;2023-08-24T13:52:39;11.70;;;8.85;;
49998;SDS011;68071;45.062;7.356;2023-08-24T13:55:43;11.43;;;8.93;;
49998;SDS011;68071;45.062;7.356;2023-08-24T13:58:47;10.80;;;8.75;;
49998;SDS011;68071;45.062;7.356;2023-08-24T14:01:51;9.32;;;7.70;;
49998;SDS011;68071;45.062;7.356;2023-08-24T14:04:55;8.93;;;8.07;;
49998;SDS011;68071;45.062;7.356;2023-08-24T14:07:58;8.75;;;7.88;;
49998;SDS011;68071;45.062;7.356;2023-08-24T14:11:02;10.02;;;8.18;;
49998;SDS011;68071;45.062;7.356;2023-08-24T14:14:06;8.55;;;7.65;;
49998;SDS011;68071;45.062;7.356;2023-08-24T14:17:10;9.77;;;8.77;;
49998;SDS011;68071;45.062;7.356;2023-08-24T14:20:14;9.52;;;8.13;;
49998;SDS011;68071;45.062;7.356;2023-08-24T14:23:19;8.18;;;7.38;;
49998;SDS011;68071;45.062;7.356;2023-08-24T14:26:23;9.50;;;7.97;;
49998;SDS011;68071;45.062;7.356;2023-08-24T14:29:27;10.65;;;7.88;;
49998;SDS011;68071;45.062;7.356;2023-08-24T14:32:31;10.27;;;8.05;;
49998;SDS011;68071;45.062;7.356;2023-08-24T14:38:39;9.90;;;7.93;;
49998;SDS011;68071;45.062;7.356;2023-08-24T14:41:44;11.02;;;8.50;;
49998;SDS011;68071;45.062;7.356;2023-08-24T14:44:48;9.70;;;8.73;;
49998;SDS011;68071;45.062;7.356;2023-08-24T14:47:52;10.45;;;8.77;;
49998;SDS011;68071;45.062;7.356;2023-08-24T14:54:32;9.80;;;8.45;;
49998;SDS011;68071;45.062;7.356;2023-08-24T14:57:36;9.45;;;8.27;;
49998;SDS011;68071;45.062;7.356;2023-08-24T15:00:40;14.55;;;8.10;;
49998;SDS011;68071;45.062;7.356;2023-08-24T15:03:44;8.15;;;7.32;;
49998;SDS011;68071;45.062;7.356;2023-08-24T15:06:48;7.80;;;7.10;;
49998;SDS011;68071;45.062;7.356;2023-08-24T15:09:52;8.20;;;6.95;;
49998;SDS011;68071;45.062;7.356;2023-08-24T15:12:58;7.88;;;7.07;;
49998;SDS011;68071;45.062;7.356;2023-08-24T15:16:02;10.55;;;6.63;;
49998;SDS011;68071;45.062;7.356;2023-08-24T15:19:06;7.70;;;6.60;;
49998;SDS011;68071;45.062;7.356;2023-08-24T15:27:27;8.65;;;7.57;;
49998;SDS011;68071;45.062;7.356;2023-08-24T15:30:31;10.73;;;7.68;;
49998;SDS011;68071;45.062;7.356;2023-08-24T15:33:35;9.13;;;8.10;;
49998;SDS011;68071;45.062;7.356;2023-08-24T15:36:39;8.07;;;7.30;;
49998;SDS011;68071;45.062;7.356;2023-08-24T15:39:44;11.70;;;8.52;;
49998;SDS011;68071;45.062;7.356;2023-08-24T15:42:48;9.30;;;8.02;;
49998;SDS011;68071;45.062;7.356;2023-08-24T15:45:51;13.63;;;9.88;;
49998;SDS011;68071;45.062;7.356;2023-08-24T15:48:55;12.68;;;10.15;;
49998;SDS011;68071;45.062;7.356;2023-08-24T15:51:59;11.23;;;9.75;;
49998;SDS011;68071;45.062;7.356;2023-08-24T15:55:03;11.85;;;9.73;;
49998;SDS011;68071;45.062;7.356;2023-08-24T15:58:07;9.15;;;8.23;;
49998;SDS011;68071;45.062;7.356;2023-08-24T16:01:11;9.73;;;8.53;;
49998;SDS011;68071;45.062;7.356;2023-08-24T16:04:16;10.20;;;8.95;;
49998;SDS011;68071;45.062;7.356;2023-08-24T16:07:20;12.77;;;8.45;;
49998;SDS011;68071;45.062;7.356;2023-08-24T16:10:23;11.02;;;9.20;;
49998;SDS011;68071;45.062;7.356;2023-08-24T16:13:28;9.65;;;8.65;;
49998;SDS011;68071;45.062;7.356;2023-08-24T16:16:32;11.43;;;9.45;;
49998;SDS011;68071;45.062;7.356;2023-08-24T16:19:37;15.55;;;10.05;;
49998;SDS011;68071;45.062;7.356;2023-08-24T16:22:41;11.20;;;8.70;;
49998;SDS011;68071;45.062;7.356;2023-08-24T16:25:45;12.68;;;10.32;;
49998;SDS011;68071;45.062;7.356;2023-08-24T16:28:49;13.95;;;9.80;;
49998;SDS011;68071;45.062;7.356;2023-08-24T16:31:53;11.90;;;9.00;;
49998;SDS011;68071;45.062;7.356;2023-08-24T16:34:58;10.02;;;8.70;;
49998;SDS011;68071;45.062;7.356;2023-08-24T16:38:02;9.97;;;8.90;;
49998;SDS011;68071;45.062;7.356;2023-08-24T16:41:06;9.98;;;8.68;;
49998;SDS011;68071;45.062;7.356;2023-08-24T16:44:10;14.53;;;9.13;;
49998;SDS011;68071;45.062;7.356;2023-08-24T16:47:16;12.38;;;8.68;;
49998;SDS011;68071;45.062;7.356;2023-08-24T16:50:20;12.40;;;9.33;;
49998;SDS011;68071;45.062;7.356;2023-08-24T16:53:23;10.88;;;9.77;;
49998;SDS011;68071;45.062;7.356;2023-08-24T16:56:27;11.20;;;9.32;;
49998;SDS011;68071;45.062;7.356;2023-08-24T16:59:31;11.38;;;9.50;;
49998;SDS011;68071;45.062;7.356;2023-08-24T17:02:35;11.27;;;9.13;;
49998;SDS011;68071;45.062;7.356;2023-08-24T17:05:39;9.93;;;8.90;;
49998;SDS011;68071;45.062;7.356;2023-08-24T17:08:43;11.05;;;9.88;;
49998;SDS011;68071;45.062;7.356;2023-08-24T17:11:47;11.02;;;8.82;;
49998;SDS011;68071;45.062;7.356;2023-08-24T17:14:51;11.75;;;8.80;;
49998;SDS011;68071;45.062;7.356;2023-08-24T17:17:56;13.05;;;9.25;;
49998;SDS011;68071;45.062;7.356;2023-08-24T17:21:02;12.65;;;9.63;;
49998;SDS011;68071;45.062;7.356;2023-08-24T17:24:07;10.40;;;9.18;;
49998;SDS011;68071;45.062;7.356;2023-08-24T17:27:11;12.27;;;8.70;;
49998;SDS011;68071;45.062;7.356;2023-08-24T17:30:15;10.27;;;9.00;;
49998;SDS011;68071;45.062;7.356;2023-08-24T17:33:19;12.85;;;9.15;;
49998;SDS011;68071;45.062;7.356;2023-08-24T17:36:26;11.30;;;8.88;;
49998;SDS011;68071;45.062;7.356;2023-08-24T17:39:32;10.50;;;9.40;;
49998;SDS011;68071;45.062;7.356;2023-08-24T17:42:39;11.30;;;9.07;;
49998;SDS011;68071;45.062;7.356;2023-08-24T17:45:43;12.80;;;8.88;;
49998;SDS011;68071;45.062;7.356;2023-08-24T17:48:48;10.77;;;8.38;;
49998;SDS011;68071;45.062;7.356;2023-08-24T17:51:51;9.82;;;8.82;;
49998;SDS011;68071;45.062;7.356;2023-08-24T17:54:55;11.43;;;8.93;;
49998;SDS011;68071;45.062;7.356;2023-08-24T17:57:59;14.80;;;9.60;;
49998;SDS011;68071;45.062;7.356;2023-08-24T18:01:03;9.35;;;8.45;;
49998;SDS011;68071;45.062;7.356;2023-08-24T18:04:07;12.73;;;8.93;;
49998;SDS011;68071;45.062;7.356;2023-08-24T18:07:11;10.57;;;7.75;;
49998;SDS011;68071;45.062;7.356;2023-08-24T18:10:16;10.55;;;7.25;;
49998;SDS011;68071;45.062;7.356;2023-08-24T18:13:20;12.50;;;7.00;;
49998;SDS011;68071;45.062;7.356;2023-08-24T18:16:24;11.27;;;7.13;;
49998;SDS011;68071;45.062;7.356;2023-08-24T18:19:28;10.27;;;7.20;;
49998;SDS011;68071;45.062;7.356;2023-08-24T18:22:32;9.02;;;8.07;;
49998;SDS011;68071;45.062;7.356;2023-08-24T18:25:36;12.47;;;8.27;;
49998;SDS011;68071;45.062;7.356;2023-08-24T18:28:40;9.85;;;7.88;;
49998;SDS011;68071;45.062;7.356;2023-08-24T18:31:44;12.48;;;8.43;;
49998;SDS011;68071;45.062;7.356;2023-08-24T18:34:49;11.52;;;8.77;;
49998;SDS011;68071;45.062;7.356;2023-08-24T18:37:54;8.85;;;7.93;;
49998;SDS011;68071;45.062;7.356;2023-08-24T18:40:58;13.88;;;8.30;;
49998;SDS011;68071;45.062;7.356;2023-08-24T18:44:03;11.05;;;8.45;;
49998;SDS011;68071;45.062;7.356;2023-08-24T18:47:07;11.90;;;9.77;;
49998;SDS011;68071;45.062;7.356;2023-08-24T18:50:11;12.93;;;10.85;;
49998;SDS011;68071;45.062;7.356;2023-08-24T18:53:15;13.30;;;11.32;;
49998;SDS011;68071;45.062;7.356;2023-08-24T19:00:59;13.40;;;11.23;;
49998;SDS011;68071;45.062;7.356;2023-08-24T19:04:04;13.50;;;11.38;;
49998;SDS011;68071;45.062;7.356;2023-08-24T19:07:08;11.98;;;10.75;;
49998;SDS011;68071;45.062;7.356;2023-08-24T19:10:13;16.42;;;11.82;;
49998;SDS011;68071;45.062;7.356;2023-08-24T19:13:17;12.52;;;10.52;;
49998;SDS011;68071;45.062;7.356;2023-08-24T19:16:21;10.88;;;9.68;;